Polaris, Montana
Current Conditions -  °F | °C
As of 12:53 PM on Sunday 25 Jan 2015 (Local Time) from KDLN Reporting Station
Clear Clear  
Wind Chill: 57°   Ceiling: Unl
Heat Index: 57°   Visibility: 10mi
Dew Point: 27°   Wind: 24mph
Humidity: 32%   Direction: 240°WSW
Pressure: 30.25"   Gusts: 31mph
Location:  45.37°N, 113.12°W
Report Text: KDLN 251953Z AUTO 24021G27KT 10SM CLR 14/M03 A3025 RMK AO2 PK WND 24031/1941 SLP223 T01391028
Loading
Personal Weather Stations






























Interactive Weather Map New forecast layout! Learn more

10-Day Weather Forecast

Advertisements
Track Severe Weather on mobile